Time;durP1;ratioP1;P1;durP2;ratioP2;P2;SDS_P1;SDS_P2;PMS_P1;PMS_P2;Temp;Humidity;BMP_temperature;BMP_pressure;BME280_temperature;BME280_humidity;BME280_pressure;Samples;Min_cycle;Max_cycle;Signal;HPM_P1;HPM_P2
2022/11/02 00:00:16;;;;;;;;;2.75;0.75;;;;;;;;5059299;28;45499;-68
2022/11/02 00:02:41;;;;;;;;;4.00;1.00;;;;;;;;5056025;28;45330;-68
2022/11/02 00:05:09;;;;;;;;;1.00;0.50;;;;;;;;5056111;28;45323;-68
2022/11/02 00:07:34;;;;;;;;;2.50;0.00;;;;;;;;5055372;28;46142;-68
2022/11/02 00:10:00;;;;;;;;;0.00;0.00;;;;;;;;5055986;28;45170;-67
2022/11/02 00:12:25;;;;;;;;;1.00;1.00;;;;;;;;5058655;28;45493;-68
2022/11/02 00:14:50;;;;;;;;;3.75;0.00;;;;;;;;5059579;28;45325;-68
2022/11/02 00:17:15;;;;;;;;;1.50;0.00;;;;;;;;5055532;28;46355;-68
2022/11/02 00:19:40;;;;;;;;;1.00;0.00;;;;;;;;5055670;28;45422;-68
2022/11/02 00:22:06;;;;;;;;;4.00;0.50;;;;;;;;5055735;28;45364;-68
2022/11/02 00:24:32;;;;;;;;;1.50;0.00;;;;;;;;5055953;28;45681;-68
2022/11/02 00:26:57;;;;;;;;;1.00;0.00;;;;;;;;5055216;28;45429;-68
2022/11/02 00:29:23;;;;;;;;;3.00;0.00;;;;;;;;5058328;28;45464;-68
2022/11/02 00:31:48;;;;;;;;;3.50;1.00;;;;;;;;5058202;27;45504;-68
2022/11/02 00:34:13;;;;;;;;;2.50;0.00;;;;;;;;5058437;28;46254;-68
2022/11/02 00:36:39;;;;;;;;;1.00;0.75;;;;;;;;5055888;28;46465;-68
2022/11/02 00:39:04;;;;;;;;;0.00;0.00;;;;;;;;5056173;28;45409;-68
2022/11/02 00:41:29;;;;;;;;;1.00;1.00;;;;;;;;5055886;28;45455;-68
2022/11/02 00:43:54;;;;;;;;;2.00;0.00;;;;;;;;5057516;28;45479;-68
2022/11/02 00:46:20;;;;;;;;;4.00;0.75;;;;;;;;5058661;28;46560;-68
2022/11/02 00:48:45;;;;;;;;;1.00;0.00;;;;;;;;5061816;28;45465;-67
2022/11/02 00:51:10;;;;;;;;;3.00;0.00;;;;;;;;5060503;28;45506;-67
2022/11/02 00:53:35;;;;;;;;;1.00;1.00;;;;;;;;5059019;28;45361;-67
2022/11/02 00:56:00;;;;;;;;;1.25;0.00;;;;;;;;5060955;28;45462;-67
2022/11/02 00:58:26;;;;;;;;;2.50;1.00;;;;;;;;5058711;28;45557;-66
2022/11/02 01:00:51;;;;;;;;;1.25;0.00;;;;;;;;5058633;28;45377;-67
2022/11/02 01:03:16;;;;;;;;;1.25;1.00;;;;;;;;5057980;28;45484;-67
2022/11/02 01:05:41;;;;;;;;;1.00;1.00;;;;;;;;5064036;28;45406;-67
2022/11/02 01:08:07;;;;;;;;;0.25;0.25;;;;;;;;5058463;28;46538;-67
2022/11/02 01:10:32;;;;;;;;;1.75;1.00;;;;;;;;5059640;28;45487;-67
2022/11/02 01:12:57;;;;;;;;;1.00;1.00;;;;;;;;5058882;28;45970;-67
2022/11/02 01:15:22;;;;;;;;;4.00;0.00;;;;;;;;5058054;28;45498;-67
2022/11/02 01:17:47;;;;;;;;;1.25;1.00;;;;;;;;5063868;28;45378;-67
2022/11/02 01:20:13;;;;;;;;;3.00;1.75;;;;;;;;5053798;28;45483;-67
2022/11/02 01:22:38;;;;;;;;;2.25;0.00;;;;;;;;5057962;28;45454;-67
2022/11/02 01:25:04;;;;;;;;;2.00;0.00;;;;;;;;5051922;28;46627;-66
2022/11/02 01:27:29;;;;;;;;;1.50;1.00;;;;;;;;5048874;28;45710;-67
2022/11/02 01:29:54;;;;;;;;;3.75;1.00;;;;;;;;5056079;28;45380;-67
2022/11/02 01:32:19;;;;;;;;;0.50;0.50;;;;;;;;5059897;28;45303;-67
2022/11/02 01:34:44;;;;;;;;;1.00;1.00;;;;;;;;5054369;28;47457;-67
2022/11/02 01:37:10;;;;;;;;;0.25;0.25;;;;;;;;5051144;28;45395;-67
2022/11/02 01:39:35;;;;;;;;;4.00;0.50;;;;;;;;5052792;28;46812;-67
2022/11/02 01:42:00;;;;;;;;;3.50;0.75;;;;;;;;5058496;28;45301;-67
2022/11/02 01:44:25;;;;;;;;;1.50;0.50;;;;;;;;5046676;28;47063;-67
2022/11/02 01:46:52;;;;;;;;;10.50;1.00;;;;;;;;5042360;28;45304;-67
2022/11/02 01:49:18;;;;;;;;;2.75;0.50;;;;;;;;5039341;28;45439;-67
2022/11/02 01:51:49;;;;;;;;;0.00;0.00;;;;;;;;5039782;28;45440;-67
2022/11/02 01:54:16;;;;;;;;;1.00;1.00;;;;;;;;5038932;28;46766;-67
2022/11/02 01:56:43;;;;;;;;;3.25;1.00;;;;;;;;5042362;28;46067;-67
2022/11/02 01:59:11;;;;;;;;;4.75;1.00;;;;;;;;5056403;28;46735;-67
2022/11/02 02:01:37;;;;;;;;;2.50;1.50;;;;;;;;5049663;28;45409;-67
2022/11/02 02:04:03;;;;;;;;;1.50;1.00;;;;;;;;5055007;28;46715;-67
2022/11/02 02:06:28;;;;;;;;;1.50;0.00;;;;;;;;5045075;28;46824;-67
2022/11/02 02:08:56;;;;;;;;;2.00;0.50;;;;;;;;5059402;28;45434;-67
2022/11/02 02:11:25;;;;;;;;;2.75;0.00;;;;;;;;5054131;28;45550;-67
2022/11/02 02:13:51;;;;;;;;;2.75;1.00;;;;;;;;5038150;28;45599;-67
2022/11/02 02:16:22;;;;;;;;;1.50;0.50;;;;;;;;5038416;28;45361;-67
2022/11/02 02:18:54;;;;;;;;;3.75;0.50;;;;;;;;5039181;28;45446;-67
2022/11/02 02:21:38;;;;;;;;;3.50;1.00;;;;;;;;5042690;28;45560;-67
2022/11/02 02:24:03;;;;;;;;;1.75;1.00;;;;;;;;5051060;28;45740;-67
2022/11/02 02:26:47;;;;;;;;;2.50;0.25;;;;;;;;5059059;28;45303;-67
2022/11/02 02:29:19;;;;;;;;;5.00;1.00;;;;;;;;5047438;28;45447;-67
2022/11/02 02:31:47;;;;;;;;;2.00;0.75;;;;;;;;5061543;28;45457;-66
2022/11/02 02:34:15;;;;;;;;;1.00;1.00;;;;;;;;5066901;28;45641;-67
2022/11/02 02:36:46;;;;;;;;;1.75;1.75;;;;;;;;5063601;28;45284;-67
2022/11/02 02:39:19;;;;;;;;;2.00;2.00;;;;;;;;5064129;28;45274;-67
2022/11/02 02:41:47;;;;;;;;;1.75;1.75;;;;;;;;5054001;28;45477;-67
2022/11/02 02:44:14;;;;;;;;;0.00;0.00;;;;;;;;5045104;28;45568;-67
2022/11/02 02:46:44;;;;;;;;;2.00;1.00;;;;;;;;5055482;28;45414;-67
2022/11/02 02:49:12;;;;;;;;;1.75;0.00;;;;;;;;5043365;28;45417;-67
2022/11/02 02:51:40;;;;;;;;;4.50;0.00;;;;;;;;5044820;28;45610;-67
2022/11/02 02:54:07;;;;;;;;;0.25;0.25;;;;;;;;5057096;28;47271;-66
2022/11/02 02:56:40;;;;;;;;;2.25;0.75;;;;;;;;5056846;28;45464;-67
2022/11/02 02:59:31;;;;;;;;;1.50;0.75;;;;;;;;5047361;28;45310;-67
2022/11/02 03:01:57;;;;;;;;;4.75;1.50;;;;;;;;5045663;28;45399;-67
2022/11/02 03:04:23;;;;;;;;;3.50;1.00;;;;;;;;5055316;28;47066;-67
2022/11/02 03:06:51;;;;;;;;;4.50;0.75;;;;;;;;5056048;28;45532;-68
2022/11/02 03:09:28;;;;;;;;;0.00;0.00;;;;;;;;5058478;28;45220;-67
2022/11/02 03:11:56;;;;;;;;;5.00;1.00;;;;;;;;5049824;28;45390;-67
2022/11/02 03:14:31;;;;;;;;;0.00;0.00;;;;;;;;5039057;28;46436;-67
2022/11/02 03:17:06;;;;;;;;;1.25;0.50;;;;;;;;5053924;28;45516;-67
2022/11/02 03:20:01;;;;;;;;;1.75;0.00;;;;;;;;5058100;28;45355;-68
2022/11/02 03:22:32;;;;;;;;;4.75;1.00;;;;;;;;5034560;28;45605;-67
2022/11/02 03:25:11;;;;;;;;;2.00;0.00;;;;;;;;5033734;28;46890;-67
2022/11/02 03:27:50;;;;;;;;;2.75;0.00;;;;;;;;5030920;28;45349;-67
2022/11/02 03:30:18;;;;;;;;;0.00;0.00;;;;;;;;5035779;28;45251;-68
2022/11/02 03:32:55;;;;;;;;;0.50;0.00;;;;;;;;5023577;28;46200;-67
2022/11/02 03:35:27;;;;;;;;;2.50;0.00;;;;;;;;5034184;28;46549;-68
2022/11/02 03:37:57;;;;;;;;;2.00;0.00;;;;;;;;5031457;28;46059;-67
2022/11/02 03:40:25;;;;;;;;;3.50;0.00;;;;;;;;5033497;28;45870;-66
2022/11/02 03:42:51;;;;;;;;;0.00;0.00;;;;;;;;5033868;28;45389;-67
2022/11/02 03:45:21;;;;;;;;;2.00;0.00;;;;;;;;5033396;28;46406;-67
2022/11/02 03:47:49;;;;;;;;;2.75;0.00;;;;;;;;5031976;28;45563;-67
2022/11/02 03:50:17;;;;;;;;;0.25;0.00;;;;;;;;5033218;28;47079;-67
2022/11/02 03:52:44;;;;;;;;;3.25;0.75;;;;;;;;5033441;28;45491;-67
2022/11/02 03:55:12;;;;;;;;;1.00;0.00;;;;;;;;5034873;28;46556;-67
2022/11/02 03:57:48;;;;;;;;;2.25;0.00;;;;;;;;5021011;28;45284;-67
2022/11/02 04:00:21;;;;;;;;;0.00;0.00;;;;;;;;5042196;28;45317;-67
2022/11/02 04:02:48;;;;;;;;;2.00;0.00;;;;;;;;5047754;28;45471;-67
2022/11/02 04:05:13;;;;;;;;;3.00;0.00;;;;;;;;5043247;28;45400;-67
2022/11/02 04:10:23;;;;;;;;;1.00;0.75;;;;;;;;5051889;28;45381;-67
2022/11/02 04:15:32;;;;;;;;;3.50;0.00;;;;;;;;5036950;28;45464;-67
2022/11/02 04:20:41;;;;;;;;;1.00;1.00;;;;;;;;5059164;28;45346;-67
2022/11/02 04:25:54;;;;;;;;;2.00;0.50;;;;;;;;5049903;28;45272;-67
2022/11/02 04:28:19;;;;;;;;;4.50;1.00;;;;;;;;5059509;28;45353;-67
2022/11/02 04:30:44;;;;;;;;;2.75;1.00;;;;;;;;5057951;28;45913;-67
2022/11/02 04:35:53;;;;;;;;;4.00;1.00;;;;;;;;5058132;28;45386;-67
2022/11/02 04:43:46;;;;;;;;;3.50;1.50;;;;;;;;5054419;28;45427;-67
2022/11/02 04:46:11;;;;;;;;;2.50;1.00;;;;;;;;5042828;28;46237;-66
2022/11/02 04:48:36;;;;;;;;;3.50;1.00;;;;;;;;5041059;28;45377;-66
2022/11/02 04:51:02;;;;;;;;;1.25;1.00;;;;;;;;5057713;28;45884;-67
2022/11/02 04:53:27;;;;;;;;;2.50;1.00;;;;;;;;5046146;28;45242;-66
2022/11/02 04:55:52;;;;;;;;;4.50;1.00;;;;;;;;5045984;28;47285;-67
2022/11/02 04:58:17;;;;;;;;;2.00;0.25;;;;;;;;5059038;28;45422;-67
2022/11/02 05:00:43;;;;;;;;;1.00;1.00;;;;;;;;5059073;28;45383;-66
2022/11/02 05:03:08;;;;;;;;;2.00;1.00;;;;;;;;5042708;28;45409;-66
2022/11/02 05:05:33;;;;;;;;;7.50;0.00;;;;;;;;5040105;28;46366;-66
2022/11/02 05:07:58;;;;;;;;;1.00;1.00;;;;;;;;5051534;28;45306;-66
2022/11/02 05:10:23;;;;;;;;;4.25;1.00;;;;;;;;5054185;28;45383;-67
2022/11/02 05:12:55;;;;;;;;;1.25;1.00;;;;;;;;5044986;28;45457;-67
2022/11/02 05:15:20;;;;;;;;;1.00;0.00;;;;;;;;5058206;28;46453;-66
2022/11/02 05:17:46;;;;;;;;;1.25;1.00;;;;;;;;5058282;28;45461;-66
2022/11/02 05:20:12;;;;;;;;;1.00;1.00;;;;;;;;5058406;28;45245;-66
2022/11/02 05:22:40;;;;;;;;;4.50;1.25;;;;;;;;5054244;28;45533;-67
2022/11/02 05:25:05;;;;;;;;;2.25;1.00;;;;;;;;5057019;28;45506;-66
2022/11/02 05:27:30;;;;;;;;;5.00;1.00;;;;;;;;5044005;28;45341;-66
2022/11/02 05:29:55;;;;;;;;;1.25;1.00;;;;;;;;5039962;28;45483;-67
2022/11/02 05:32:21;;;;;;;;;0.50;0.50;;;;;;;;5058334;28;45399;-67
2022/11/02 05:34:46;;;;;;;;;3.00;2.00;;;;;;;;5058396;28;45527;-66
2022/11/02 05:37:11;;;;;;;;;7.00;1.00;;;;;;;;5045158;28;45502;-66
2022/11/02 05:39:36;;;;;;;;;4.00;3.00;;;;;;;;5040410;28;45359;-66
2022/11/02 05:42:01;;;;;;;;;5.00;5.00;;;;;;;;5056368;28;45477;-66
2022/11/02 05:44:27;;;;;;;;;5.00;2.50;;;;;;;;5059564;28;46560;-66
2022/11/02 05:46:52;;;;;;;;;4.00;1.75;;;;;;;;5042049;28;45238;-66
2022/11/02 05:49:17;;;;;;;;;3.25;2.00;;;;;;;;5039621;28;45174;-66
2022/11/02 05:51:42;;;;;;;;;4.50;1.25;;;;;;;;5039634;28;45241;-66
2022/11/02 05:54:08;;;;;;;;;5.00;2.00;;;;;;;;5058012;28;46628;-66
2022/11/02 05:56:34;;;;;;;;;2.50;1.50;;;;;;;;5059232;28;45546;-66
2022/11/02 05:58:59;;;;;;;;;6.25;1.00;;;;;;;;5051125;28;45416;-67
2022/11/02 06:01:24;;;;;;;;;3.00;1.00;;;;;;;;5047689;28;45584;-66
2022/11/02 06:03:49;;;;;;;;;3.00;1.00;;;;;;;;5055937;28;46288;-67
2022/11/02 06:06:14;;;;;;;;;3.75;2.00;;;;;;;;5054620;28;46280;-67
2022/11/02 06:08:40;;;;;;;;;1.50;1.50;;;;;;;;5048882;28;45330;-67
2022/11/02 06:11:06;;;;;;;;;4.00;1.00;;;;;;;;5053292;28;45395;-67
2022/11/02 06:13:31;;;;;;;;;4.25;1.25;;;;;;;;5051684;28;45340;-66
2022/11/02 06:15:59;;;;;;;;;5.50;2.00;;;;;;;;5046400;28;45254;-67
2022/11/02 06:18:25;;;;;;;;;5.75;1.00;;;;;;;;5054308;28;45367;-66
2022/11/02 06:20:50;;;;;;;;;6.75;2.00;;;;;;;;5057599;28;45458;-67
2022/11/02 06:23:17;;;;;;;;;1.00;1.00;;;;;;;;5052802;28;46895;-67
2022/11/02 06:25:43;;;;;;;;;3.00;0.75;;;;;;;;5055347;28;45288;-67
2022/11/02 06:28:08;;;;;;;;;4.75;1.75;;;;;;;;5039638;28;45378;-67
2022/11/02 06:30:34;;;;;;;;;4.00;1.00;;;;;;;;5057400;28;45268;-67
2022/11/02 06:32:59;;;;;;;;;6.00;4.50;;;;;;;;5045511;28;47181;-67
2022/11/02 06:35:24;;;;;;;;;6.25;2.00;;;;;;;;5045557;28;45210;-67
2022/11/02 06:37:49;;;;;;;;;1.00;1.00;;;;;;;;5048388;28;45592;-66
2022/11/02 06:40:15;;;;;;;;;5.00;3.75;;;;;;;;5038175;28;45370;-67
2022/11/02 06:42:40;;;;;;;;;3.50;2.00;;;;;;;;5050987;28;46634;-66
2022/11/02 06:45:06;;;;;;;;;4.25;2.00;;;;;;;;5051936;28;45440;-67
2022/11/02 06:47:32;;;;;;;;;5.00;1.25;;;;;;;;5043531;28;45487;-67
2022/11/02 06:49:58;;;;;;;;;3.50;2.00;;;;;;;;5046722;28;45824;-66
2022/11/02 06:52:23;;;;;;;;;4.50;2.50;;;;;;;;5045381;28;46464;-66
2022/11/02 06:54:48;;;;;;;;;5.25;1.75;;;;;;;;5047600;28;45375;-67
2022/11/02 06:57:14;;;;;;;;;3.75;2.25;;;;;;;;5057280;28;45465;-66
2022/11/02 06:59:39;;;;;;;;;5.25;3.00;;;;;;;;5050581;28;45356;-67
2022/11/02 07:02:04;;;;;;;;;4.00;2.00;;;;;;;;5045622;28;47554;-66
2022/11/02 07:04:30;;;;;;;;;3.00;1.75;;;;;;;;5046614;28;45470;-66
2022/11/02 07:06:55;;;;;;;;;3.25;2.00;;;;;;;;5049515;28;45673;-66
2022/11/02 07:09:20;;;;;;;;;4.25;3.00;;;;;;;;5057164;28;45253;-67
2022/11/02 07:11:45;;;;;;;;;2.25;1.00;;;;;;;;5054563;28;46451;-67
2022/11/02 07:14:10;;;;;;;;;5.50;1.50;;;;;;;;5040031;28;45215;-67
2022/11/02 07:16:36;;;;;;;;;4.50;2.00;;;;;;;;5053618;28;45382;-67
2022/11/02 07:19:01;;;;;;;;;3.25;1.00;;;;;;;;5056223;28;45658;-67
2022/11/02 07:21:27;;;;;;;;;7.00;1.00;;;;;;;;5043903;28;46270;-67
2022/11/02 07:23:52;;;;;;;;;3.00;1.75;;;;;;;;5053786;28;45178;-66
2022/11/02 07:26:18;;;;;;;;;1.50;1.25;;;;;;;;5050713;28;45459;-67
2022/11/02 07:28:44;;;;;;;;;4.25;2.00;;;;;;;;5045390;28;45399;-67
2022/11/02 07:31:09;;;;;;;;;1.50;1.50;;;;;;;;5048138;28;46398;-67
2022/11/02 07:33:34;;;;;;;;;4.00;2.00;;;;;;;;5045093;28;45276;-67
2022/11/02 07:36:01;;;;;;;;;5.00;3.00;;;;;;;;5053576;28;45491;-67
2022/11/02 07:38:26;;;;;;;;;6.00;2.00;;;;;;;;5056578;28;45255;-67
2022/11/02 07:40:51;;;;;;;;;5.25;2.00;;;;;;;;5042068;28;46522;-66
2022/11/02 07:43:17;;;;;;;;;6.00;3.00;;;;;;;;5037518;28;45325;-67
2022/11/02 07:45:42;;;;;;;;;4.50;2.25;;;;;;;;5037630;28;45438;-67
2022/11/02 07:48:07;;;;;;;;;5.25;3.25;;;;;;;;5037936;28;45291;-67
2022/11/02 07:50:32;;;;;;;;;2.00;2.00;;;;;;;;5037420;28;46225;-67
2022/11/02 07:52:58;;;;;;;;;3.50;2.50;;;;;;;;5037256;28;45474;-66
2022/11/02 07:55:24;;;;;;;;;1.75;1.75;;;;;;;;5037629;28;45430;-66
2022/11/02 07:57:52;;;;;;;;;11.50;3.50;;;;;;;;5037638;28;45296;-68
2022/11/02 08:00:17;;;;;;;;;8.00;2.00;;;;;;;;5037366;28;46595;-67
2022/11/02 08:02:43;;;;;;;;;6.25;4.00;;;;;;;;5037304;28;45406;-68
2022/11/02 08:05:08;;;;;;;;;2.25;1.25;;;;;;;;5037382;28;45269;-67
2022/11/02 08:07:33;;;;;;;;;10.67;7.67;;;;;;;;5037524;28;45388;-67
2022/11/02 08:09:58;;;;;;;;;6.75;3.75;;;;;;;;5037188;28;46684;-67
2022/11/02 08:12:23;;;;;;;;;3.00;3.00;;;;;;;;5037309;28;45438;-67
2022/11/02 08:14:49;;;;;;;;;3.25;1.75;;;;;;;;5037249;28;45264;-67
2022/11/02 08:17:14;;;;;;;;;5.50;2.00;;;;;;;;5037430;28;45447;-68
2022/11/02 08:19:39;;;;;;;;;10.50;2.25;;;;;;;;5036835;28;46429;-67
2022/11/02 08:22:04;;;;;;;;;6.50;3.00;;;;;;;;5037139;28;45317;-67
2022/11/02 08:24:30;;;;;;;;;4.75;2.00;;;;;;;;5037633;28;45340;-67
2022/11/02 08:26:55;;;;;;;;;4.25;3.00;;;;;;;;5037437;28;45527;-67
2022/11/02 08:29:20;;;;;;;;;18.67;17.00;;;;;;;;5037101;28;45448;-67
2022/11/02 08:31:46;;;;;;;;;6.75;3.00;;;;;;;;5036832;28;45406;-67
2022/11/02 08:34:11;;;;;;;;;6.25;2.00;;;;;;;;5037173;28;45436;-68
2022/11/02 08:36:37;;;;;;;;;7.50;3.00;;;;;;;;5037283;28;45272;-68
2022/11/02 08:39:02;;;;;;;;;6.75;2.75;;;;;;;;5036952;28;46355;-67
2022/11/02 08:41:27;;;;;;;;;4.00;2.00;;;;;;;;5037001;28;45356;-67
2022/11/02 08:43:53;;;;;;;;;4.50;4.00;;;;;;;;5036978;28;45310;-67
2022/11/02 08:46:18;;;;;;;;;2.75;2.00;;;;;;;;5037029;28;45337;-68
2022/11/02 08:48:43;;;;;;;;;3.25;1.25;;;;;;;;5036594;28;47269;-67
2022/11/02 08:51:09;;;;;;;;;6.50;2.00;;;;;;;;5036672;28;45360;-67
2022/11/02 08:53:34;;;;;;;;;9.50;3.75;;;;;;;;5036899;28;45347;-67
2022/11/02 08:55:59;;;;;;;;;6.00;2.25;;;;;;;;5036883;28;45437;-67
2022/11/02 08:58:25;;;;;;;;;2.75;2.00;;;;;;;;5036267;28;46410;-67
2022/11/02 09:00:52;;;;;;;;;3.25;2.25;;;;;;;;5036504;28;45337;-68
2022/11/02 09:03:18;;;;;;;;;4.25;3.75;;;;;;;;5036794;28;45209;-67
2022/11/02 09:05:44;;;;;;;;;4.00;2.00;;;;;;;;5039806;28;45481;-67
2022/11/02 09:08:10;;;;;;;;;7.25;3.00;;;;;;;;5039793;28;46757;-67
2022/11/02 09:10:36;;;;;;;;;6.00;2.50;;;;;;;;5039870;28;45313;-67
2022/11/02 09:13:03;;;;;;;;;6.50;3.00;;;;;;;;5039850;28;45387;-68
2022/11/02 09:15:28;;;;;;;;;3.25;2.75;;;;;;;;5039941;28;45403;-67
2022/11/02 09:17:54;;;;;;;;;5.00;2.00;;;;;;;;5039819;28;46100;-67
2022/11/02 09:20:19;;;;;;;;;7.00;2.00;;;;;;;;5039698;28;45480;-67
2022/11/02 09:22:45;;;;;;;;;2.50;1.00;;;;;;;;5040191;28;45353;-67
2022/11/02 09:25:11;;;;;;;;;4.50;1.00;;;;;;;;5040066;28;45387;-67
2022/11/02 09:27:36;;;;;;;;;6.50;3.00;;;;;;;;5039562;28;46541;-67
2022/11/02 09:30:03;;;;;;;;;5.25;3.25;;;;;;;;5039603;28;45229;-67
2022/11/02 09:32:32;;;;;;;;;3.75;3.00;;;;;;;;5039315;28;45424;-67
2022/11/02 09:34:57;;;;;;;;;6.00;3.75;;;;;;;;5039766;28;45558;-67
2022/11/02 09:37:22;;;;;;;;;4.00;3.00;;;;;;;;5039316;28;46349;-67
2022/11/02 09:39:47;;;;;;;;;1.75;1.75;;;;;;;;5039535;28;45476;-67
2022/11/02 09:42:20;;;;;;;;;8.75;4.25;;;;;;;;5039486;28;45511;-67
2022/11/02 09:44:52;;;;;;;;;5.75;2.50;;;;;;;;5039599;28;45434;-67
2022/11/02 09:47:19;;;;;;;;;4.00;2.00;;;;;;;;5051032;28;45685;-67
2022/11/02 09:49:44;;;;;;;;;1.50;1.25;;;;;;;;5059334;28;45490;-67
2022/11/02 09:52:17;;;;;;;;;1.50;1.50;;;;;;;;5057499;28;46163;-67
2022/11/02 09:54:48;;;;;;;;;8.25;7.75;;;;;;;;5058736;28;45304;-67
2022/11/02 09:57:16;;;;;;;;;4.00;2.00;;;;;;;;5050239;28;46566;-67
2022/11/02 09:59:41;;;;;;;;;5.25;2.25;;;;;;;;5051039;28;45426;-68
2022/11/02 10:02:15;;;;;;;;;1.25;1.25;;;;;;;;5038964;28;45699;-67
2022/11/02 10:04:47;;;;;;;;;4.50;1.75;;;;;;;;5055875;28;45229;-68
2022/11/02 10:07:18;;;;;;;;;1.25;1.25;;;;;;;;5058899;28;46960;-67
2022/11/02 10:09:47;;;;;;;;;3.50;1.75;;;;;;;;5051392;28;45366;-67
2022/11/02 10:12:19;;;;;;;;;1.50;1.50;;;;;;;;5039226;28;45314;-67
2022/11/02 10:15:07;;;;;;;;;2.50;2.00;;;;;;;;5039091;28;45258;-67
2022/11/02 10:17:35;;;;;;;;;1.75;0.50;;;;;;;;5038693;28;45494;-67
2022/11/02 10:20:04;;;;;;;;;1.75;1.00;;;;;;;;5038457;28;45421;-67
2022/11/02 10:22:36;;;;;;;;;1.75;1.75;;;;;;;;5038995;28;45234;-67
2022/11/02 10:25:04;;;;;;;;;5.25;2.00;;;;;;;;5039120;28;45209;-67
2022/11/02 10:27:33;;;;;;;;;2.75;1.00;;;;;;;;5038274;28;46870;-66
2022/11/02 10:30:04;;;;;;;;;3.00;1.00;;;;;;;;5038917;28;45331;-67
2022/11/02 10:32:34;;;;;;;;;1.75;0.75;;;;;;;;5041361;28;45314;-67
2022/11/02 10:35:02;;;;;;;;;1.25;1.25;;;;;;;;5058865;28;45351;-67
2022/11/02 10:37:27;;;;;;;;;1.25;1.00;;;;;;;;5058273;28;45340;-67
2022/11/02 10:39:52;;;;;;;;;6.50;2.25;;;;;;;;5058617;28;45331;-68
2022/11/02 10:42:27;;;;;;;;;1.50;0.50;;;;;;;;5058667;28;45212;-67
2022/11/02 10:45:18;;;;;;;;;1.00;0.75;;;;;;;;5058538;28;45400;-67
2022/11/02 10:48:02;;;;;;;;;1.50;0.75;;;;;;;;5058329;28;45422;-67
2022/11/02 10:51:06;;;;;;;;;4.25;2.50;;;;;;;;5056437;28;45462;-67
2022/11/02 10:53:42;;;;;;;;;2.75;0.75;;;;;;;;4996271;28;45468;-71
2022/11/02 10:56:14;;;;;;;;;1.75;0.25;;;;;;;;4996964;28;45395;-69
2022/11/02 10:58:44;;;;;;;;;5.00;1.75;;;;;;;;4996035;28;47510;-67
2022/11/02 11:01:10;;;;;;;;;3.50;3.00;;;;;;;;4996121;28;45454;-68
2022/11/02 11:03:55;;;;;;;;;3.00;0.50;;;;;;;;4996566;28;45419;-68
2022/11/02 11:06:22;;;;;;;;;4.00;1.50;;;;;;;;4996282;28;45346;-68
2022/11/02 11:08:48;;;;;;;;;2.50;0.00;;;;;;;;4995748;28;46128;-68
2022/11/02 11:11:21;;;;;;;;;3.25;1.75;;;;;;;;4995822;28;45247;-68
2022/11/02 11:14:12;;;;;;;;;1.25;1.25;;;;;;;;4996174;28;45233;-68
2022/11/02 11:16:46;;;;;;;;;1.50;0.50;;;;;;;;4992750;28;45582;-68
2022/11/02 11:19:17;;;;;;;;;4.00;0.75;;;;;;;;4995907;28;46251;-68
2022/11/02 11:21:43;;;;;;;;;5.00;1.25;;;;;;;;4995519;28;45400;-68
2022/11/02 11:24:17;;;;;;;;;2.75;1.00;;;;;;;;5023317;28;45744;-68
2022/11/02 11:26:43;;;;;;;;;3.00;2.25;;;;;;;;5057917;28;45200;-68
2022/11/02 11:29:20;;;;;;;;;3.25;1.00;;;;;;;;5057749;28;46147;-68
2022/11/02 11:31:45;;;;;;;;;1.00;1.00;;;;;;;;5057622;28;45245;-68
2022/11/02 11:34:21;;;;;;;;;1.75;0.25;;;;;;;;5056795;28;45555;-68
2022/11/02 11:36:46;;;;;;;;;4.00;0.25;;;;;;;;5058079;28;45320;-68
2022/11/02 11:39:32;;;;;;;;;4.75;2.00;;;;;;;;5057666;28;45443;-68
2022/11/02 11:41:58;;;;;;;;;2.25;2.00;;;;;;;;5057853;28;45322;-67
2022/11/02 11:44:24;;;;;;;;;3.50;1.50;;;;;;;;5057987;28;45363;-66
2022/11/02 11:46:54;;;;;;;;;3.00;0.75;;;;;;;;5057927;28;45312;-66
2022/11/02 11:49:20;;;;;;;;;3.00;0.75;;;;;;;;5057728;28;46696;-66
2022/11/02 11:51:47;;;;;;;;;0.75;0.75;;;;;;;;5057382;28;45411;-66
2022/11/02 11:54:13;;;;;;;;;1.25;1.00;;;;;;;;5057834;28;45306;-67
2022/11/02 11:56:38;;;;;;;;;3.00;1.00;;;;;;;;5057782;28;45374;-67
2022/11/02 11:59:03;;;;;;;;;3.50;1.00;;;;;;;;5057442;28;46520;-66
2022/11/02 12:01:37;;;;;;;;;9.00;4.00;;;;;;;;5057359;28;45469;-66
2022/11/02 12:04:02;;;;;;;;;8.75;4.00;;;;;;;;5057717;28;45308;-66
2022/11/02 12:06:40;;;;;;;;;1.00;1.00;;;;;;;;5057558;28;45304;-66
2022/11/02 12:09:23;;;;;;;;;2.00;0.00;;;;;;;;5057265;28;45509;-67
2022/11/02 12:11:55;;;;;;;;;2.50;2.00;;;;;;;;5057261;28;45370;-67
2022/11/02 12:14:20;;;;;;;;;4.25;1.75;;;;;;;;5057502;28;45370;-67
2022/11/02 12:16:52;;;;;;;;;5.00;0.75;;;;;;;;5057431;28;45320;-67
2022/11/02 12:19:29;;;;;;;;;2.00;0.00;;;;;;;;5057160;28;45523;-66
2022/11/02 12:22:01;;;;;;;;;0.75;0.75;;;;;;;;5057089;28;45492;-66
2022/11/02 12:24:32;;;;;;;;;4.00;1.00;;;;;;;;5057256;28;45265;-66
2022/11/02 12:27:03;;;;;;;;;0.75;0.50;;;;;;;;5057295;28;45326;-67
2022/11/02 12:29:54;;;;;;;;;1.25;0.75;;;;;;;;5057115;28;46025;-67
2022/11/02 12:32:19;;;;;;;;;5.75;2.75;;;;;;;;5056875;28;45518;-66
2022/11/02 12:34:57;;;;;;;;;7.75;1.75;;;;;;;;5057348;28;45331;-66
2022/11/02 12:37:35;;;;;;;;;5.50;3.00;;;;;;;;5057144;28;45613;-66
2022/11/02 12:40:16;;;;;;;;;4.50;2.00;;;;;;;;5058947;28;46283;-69
2022/11/02 12:42:56;;;;;;;;;2.00;0.25;;;;;;;;5060258;28;45298;-66
2022/11/02 12:45:41;;;;;;;;;1.75;0.75;;;;;;;;5060705;28;45421;-67
2022/11/02 12:48:08;;;;;;;;;4.50;2.75;;;;;;;;5060813;28;45269;-67
2022/11/02 12:50:52;;;;;;;;;1.00;1.00;;;;;;;;5059935;28;45733;-66
2022/11/02 12:53:23;;;;;;;;;1.50;0.00;;;;;;;;5060358;28;45361;-66
2022/11/02 12:55:50;;;;;;;;;3.50;1.50;;;;;;;;5060463;28;45269;-66
2022/11/02 12:58:28;;;;;;;;;2.25;0.75;;;;;;;;5060673;28;45513;-66
2022/11/02 13:01:09;;;;;;;;;2.50;1.25;;;;;;;;5059912;28;46654;-66
2022/11/02 13:03:53;;;;;;;;;0.50;0.25;;;;;;;;5060324;28;45285;-66
2022/11/02 13:06:25;;;;;;;;;2.50;0.75;;;;;;;;5060102;28;45414;-66
2022/11/02 13:09:03;;;;;;;;;2.00;1.00;;;;;;;;5060416;28;45329;-66
2022/11/02 13:11:34;;;;;;;;;1.50;1.50;;;;;;;;5060160;28;45421;-67
2022/11/02 13:14:02;;;;;;;;;2.00;0.50;;;;;;;;5060208;28;45326;-67
2022/11/02 13:16:47;;;;;;;;;9.00;9.00;;;;;;;;5059702;28;45370;-67
2022/11/02 13:19:21;;;;;;;;;1.75;1.00;;;;;;;;5060080;28;45350;-66
2022/11/02 13:21:53;;;;;;;;;6.67;6.33;;;;;;;;5059791;28;46506;-67
2022/11/02 13:24:21;;;;;;;;;14.33;13.00;;;;;;;;5059860;28;45376;-67
2022/11/02 13:26:47;;;;;;;;;2.50;1.00;;;;;;;;5059959;28;45243;-67
2022/11/02 13:29:16;;;;;;;;;1.00;0.00;;;;;;;;5060509;28;45208;-67
2022/11/02 13:31:47;;;;;;;;;4.25;0.75;;;;;;;;5059673;28;45449;-73
2022/11/02 13:34:15;;;;;;;;;2.75;0.75;;;;;;;;5059519;28;45258;-71
2022/11/02 13:36:41;;;;;;;;;2.00;1.00;;;;;;;;5059830;28;45289;-71
2022/11/02 13:39:38;;;;;;;;;4.75;2.50;;;;;;;;5059952;28;45346;-68
2022/11/02 13:42:06;;;;;;;;;4.25;2.50;;;;;;;;4997496;28;45730;-70
2022/11/02 13:44:38;;;;;;;;;1.50;1.00;;;;;;;;4997170;28;45382;-66
2022/11/02 13:47:03;;;;;;;;;6.50;3.50;;;;;;;;4997457;28;45373;-66
2022/11/02 13:49:36;;;;;;;;;3.75;2.00;;;;;;;;4997044;28;45358;-70
2022/11/02 13:52:03;;;;;;;;;9.00;1.00;;;;;;;;4996922;28;45388;-69
2022/11/02 13:54:31;;;;;;;;;1.00;1.00;;;;;;;;4997575;28;45353;-68
2022/11/02 13:56:57;;;;;;;;;1.00;1.00;;;;;;;;4997404;28;45401;-67
2022/11/02 13:59:25;;;;;;;;;0.50;0.50;;;;;;;;4997499;28;45407;-65
2022/11/02 14:01:52;;;;;;;;;1.50;1.00;;;;;;;;4996963;28;46513;-68
2022/11/02 14:04:17;;;;;;;;;1.00;1.00;;;;;;;;4996954;28;45343;-65
2022/11/02 14:07:09;;;;;;;;;2.25;0.00;;;;;;;;4997063;28;45494;-73
2022/11/02 14:09:38;;;;;;;;;0.00;0.00;;;;;;;;4938446;28;45391;-75
2022/11/02 14:12:21;;;;;;;;;1.25;1.25;;;;;;;;4938277;28;45659;-72
2022/11/02 14:15:05;;;;;;;;;0.00;0.00;;;;;;;;4938274;28;45414;-66
2022/11/02 14:17:50;;;;;;;;;2.00;0.25;;;;;;;;4963867;28;45509;-75
2022/11/02 14:20:30;;;;;;;;;2.25;0.75;;;;;;;;4996930;28;45575;-71
2022/11/02 14:23:08;;;;;;;;;6.00;1.00;;;;;;;;4996732;28;46415;-65
2022/11/02 14:25:53;;;;;;;;;4.00;1.00;;;;;;;;4996734;28;45374;-69
2022/11/02 14:28:18;;;;;;;;;5.50;3.75;;;;;;;;4996468;28;45491;-71
2022/11/02 14:30:44;;;;;;;;;0.00;0.00;;;;;;;;4996988;28;46009;-68
2022/11/02 14:33:16;;;;;;;;;0.25;0.25;;;;;;;;4996512;28;47107;-75
2022/11/02 14:35:45;;;;;;;;;1.50;0.50;;;;;;;;4996780;28;45196;-74
2022/11/02 14:38:20;;;;;;;;;2.50;1.00;;;;;;;;4996925;28;45477;-69
2022/11/02 14:41:15;;;;;;;;;3.50;1.25;;;;;;;;4996698;28;45397;-66
2022/11/02 14:43:59;;;;;;;;;0.00;0.00;;;;;;;;4976820;28;47242;-65
2022/11/02 14:46:42;;;;;;;;;2.50;1.00;;;;;;;;4986648;28;45542;-69
2022/11/02 14:49:16;;;;;;;;;0.00;0.00;;;;;;;;4996694;28;45525;-71
2022/11/02 14:51:41;;;;;;;;;3.25;0.50;;;;;;;;4996689;28;45379;-69
2022/11/02 14:54:15;;;;;;;;;5.25;1.75;;;;;;;;4996519;28;46542;-70
2022/11/02 14:56:52;;;;;;;;;2.25;1.50;;;;;;;;4996130;28;45482;-71
2022/11/02 14:59:26;;;;;;;;;3.00;1.75;;;;;;;;4996581;28;45289;-71
2022/11/02 15:01:59;;;;;;;;;6.25;1.50;;;;;;;;4978498;28;45569;-66
2022/11/02 15:04:25;;;;;;;;;5.75;1.50;;;;;;;;4973658;28;45653;-69
2022/11/02 15:06:55;;;;;;;;;4.00;1.00;;;;;;;;4975683;28;45504;-70
2022/11/02 15:09:39;;;;;;;;;3.00;1.75;;;;;;;;4975944;28;45453;-73
2022/11/02 15:12:25;;;;;;;;;4.00;1.50;;;;;;;;4973655;28;45353;-72